Terminal Aerodrome Forecast
Issued by NWS Cleveland, OH

Home | Current Version | Previous Version | Graphics & Text | Print | Product List | Glossary Off
Versions: 1 2 3 4 5 6 7 8 9 10 11 12 13 14 15 16 17 18 19

000
FTUS41 KCLE 050803 AAA
TAFYNG
TAF AMD
KYNG 050803Z 0508/0606 32006KT P6SM -SHRA SCT012 OVC050
     FM051000 04006KT 4SM BR SCT008 OVC012
      TEMPO 0510/0513 2SM BR BKN008
     FM051600 02012KT P6SM SCT008 OVC012
     FM052000 02014G22KT P6SM OVC035
     FM060000 35012KT P6SM BKN050=

USA.gov is the U.S. government's official web portal to all federal, state and local government web resources and services.